Time;durP1;ratioP1;P1;durP2;ratioP2;P2;SDS_P1;SDS_P2;PMS_P1;PMS_P2;Temp;Humidity;BMP_temperature;BMP_pressure;BME280_temperature;BME280_humidity;BME280_pressure;Samples;Min_cycle;Max_cycle;Signal;HPM_P1;HPM_P2
2021/04/07 00:00:39;;;;;;;0.20;0.20;;;;;;;1.09;49.80;98378.34;5112922;28;20452;-59
2021/04/07 00:03:07;;;;;;;0.20;0.20;;;;;;;1.10;49.63;98380.03;5113112;28;20043;-59
2021/04/07 00:05:35;;;;;;;0.20;0.20;;;;;;;1.10;49.58;98377.31;5110610;28;20059;-59
2021/04/07 00:08:02;;;;;;;0.20;0.20;;;;;;;1.08;49.61;98379.38;5112826;28;20061;-60
2021/04/07 00:10:33;;;;;;;0.20;0.20;;;;;;;1.07;49.66;98383.09;5096700;28;20044;-61
2021/04/07 00:12:59;;;;;;;0.20;0.20;;;;;;;1.05;49.55;98380.59;5114875;28;20064;-62
2021/04/07 00:15:26;;;;;;;0.20;0.20;;;;;;;1.05;49.65;98386.81;5114820;28;20074;-59
2021/04/07 00:17:52;;;;;;;0.20;0.20;;;;;;;1.07;49.70;98381.22;5112858;28;20044;-59
2021/04/07 00:20:21;;;;;;;0.20;0.20;;;;;;;1.04;49.55;98379.72;5112889;28;20066;-60
2021/04/07 00:22:48;;;;;;;0.20;0.20;;;;;;;1.05;49.59;98380.59;5094235;28;20090;-58
2021/04/07 00:25:14;;;;;;;0.63;0.47;;;;;;;1.02;49.66;98380.97;5077203;28;20508;-58
2021/04/07 00:27:42;;;;;;;0.30;0.30;;;;;;;0.99;49.65;98392.97;5096231;28;20142;-58
2021/04/07 00:30:10;;;;;;;0.20;0.20;;;;;;;1.02;49.59;98391.78;5112542;28;20063;-59
2021/04/07 00:32:36;;;;;;;0.20;0.20;;;;;;;0.99;49.67;98392.97;5112704;28;20102;-59
2021/04/07 00:35:03;;;;;;;0.20;0.20;;;;;;;0.96;49.67;98382.53;5112117;28;20052;-60
2021/04/07 00:37:28;;;;;;;0.20;0.20;;;;;;;0.95;49.60;98398.94;5111911;28;20051;-59
2021/04/07 00:39:54;;;;;;;0.43;0.43;;;;;;;0.92;49.75;98397.44;5112897;28;20043;-60
2021/04/07 00:42:21;;;;;;;0.20;0.20;;;;;;;0.89;49.80;98392.41;5112543;28;20055;-59
2021/04/07 00:44:46;;;;;;;0.20;0.20;;;;;;;0.85;49.83;98396.47;5093886;28;20557;-60
2021/04/07 00:47:16;;;;;;;0.20;0.20;;;;;;;0.83;49.76;98390.44;5112055;28;20058;-60
2021/04/07 00:49:41;;;;;;;0.20;0.20;;;;;;;0.81;49.85;98395.16;5114252;28;20146;-59
2021/04/07 00:52:08;;;;;;;0.20;0.20;;;;;;;0.80;49.86;98401.63;5094604;28;20574;-58
2021/04/07 00:54:34;;;;;;;0.20;0.20;;;;;;;0.78;49.99;98390.13;5113904;28;20062;-59
2021/04/07 00:57:01;;;;;;;0.20;0.20;;;;;;;0.79;49.76;98395.34;5111598;28;20078;-59
2021/04/07 00:59:27;;;;;;;0.20;0.20;;;;;;;0.80;49.56;98388.09;5093416;28;20516;-59
2021/04/07 01:01:53;;;;;;;0.20;0.20;;;;;;;0.79;49.73;98392.63;5092035;28;20044;-59
2021/04/07 01:04:20;;;;;;;0.20;0.20;;;;;;;0.79;49.61;98398.03;5111895;28;20097;-59
2021/04/07 01:06:47;;;;;;;0.20;0.20;;;;;;;0.78;49.65;98382.00;5111695;28;20394;-59
2021/04/07 01:09:13;;;;;;;0.20;0.20;;;;;;;0.76;49.73;98390.31;5111518;28;20055;-59
2021/04/07 01:11:38;;;;;;;0.55;0.55;;;;;;;0.76;49.59;98392.19;5111051;28;20385;-60
2021/04/07 01:14:05;;;;;;;0.20;0.20;;;;;;;0.76;49.62;98395.72;5090616;28;20133;-59
2021/04/07 01:16:32;;;;;;;0.20;0.20;;;;;;;0.78;49.64;98401.78;5111596;28;20043;-60
2021/04/07 01:18:57;;;;;;;0.20;0.20;;;;;;;0.77;49.69;98401.97;5111348;28;20151;-61
2021/04/07 01:21:23;;;;;;;0.30;0.30;;;;;;;0.76;49.72;98397.59;5111658;28;20130;-59
2021/04/07 01:23:49;;;;;;;0.20;0.20;;;;;;;0.77;49.63;98400.09;5113291;28;20067;-60
2021/04/07 01:26:16;;;;;;;0.20;0.20;;;;;;;0.81;49.56;98404.13;5111053;28;20047;-60
2021/04/07 01:28:42;;;;;;;0.20;0.20;;;;;;;0.86;49.57;98406.28;5093745;28;20101;-59
2021/04/07 01:31:09;;;;;;;0.20;0.20;;;;;;;0.90;49.63;98401.34;5095037;28;20051;-60
2021/04/07 01:33:35;;;;;;;0.20;0.20;;;;;;;0.93;49.35;98407.22;5110984;28;20059;-60
2021/04/07 01:36:01;;;;;;;0.20;0.20;;;;;;;0.97;49.38;98396.88;5113164;28;20054;-60
2021/04/07 01:38:28;;;;;;;0.20;0.20;;;;;;;0.99;49.20;98395.69;5113261;28;20058;-59
2021/04/07 01:40:55;;;;;;;0.22;0.22;;;;;;;1.01;49.29;98382.81;5111029;28;20075;-58
2021/04/07 01:43:23;;;;;;;0.20;0.20;;;;;;;1.02;49.18;98389.91;5111035;28;20150;-59
2021/04/07 01:45:50;;;;;;;0.10;0.10;;;;;;;1.04;49.21;98397.81;5112954;28;20043;-59
2021/04/07 01:48:17;;;;;;;0.20;0.20;;;;;;;1.08;49.32;98401.03;5110697;28;20070;-59
2021/04/07 01:50:48;;;;;;;0.20;0.20;;;;;;;1.12;49.04;98405.88;5111056;28;20398;-58
2021/04/07 01:53:17;;;;;;;0.20;0.20;;;;;;;1.18;49.10;98401.59;5112605;28;20402;-58
2021/04/07 01:55:44;;;;;;;0.20;0.20;;;;;;;1.22;49.24;98392.06;5086864;28;20036;-58
2021/04/07 01:58:12;;;;;;;0.20;0.20;;;;;;;1.29;48.87;98393.00;5080959;28;20044;-57
2021/04/07 02:00:37;;;;;;;0.20;0.20;;;;;;;1.38;48.73;98400.03;5081172;28;20041;-58
2021/04/07 02:03:04;;;;;;;0.20;0.20;;;;;;;1.49;48.61;98403.28;5084365;28;20036;-58
2021/04/07 02:05:30;;;;;;;0.20;0.20;;;;;;;1.60;48.58;98400.09;5080803;28;20113;-59
2021/04/07 02:07:57;;;;;;;0.20;0.20;;;;;;;1.70;48.34;98391.72;5079721;28;20052;-59
2021/04/07 02:10:23;;;;;;;0.52;0.43;;;;;;;1.80;48.26;98386.00;5079863;28;20105;-59
2021/04/07 02:12:57;;;;;;;0.20;0.20;;;;;;;1.91;48.17;98391.78;5081984;28;20060;-59
2021/04/07 02:15:25;;;;;;;0.20;0.20;;;;;;;2.05;48.04;98392.75;5081583;28;20498;-57
2021/04/07 02:17:52;;;;;;;0.20;0.20;;;;;;;2.65;47.10;98391.72;5056724;28;20078;-59
2021/04/07 02:20:18;;;;;;;0.17;0.17;;;;;;;4.51;44.03;98394.66;5083539;28;20127;-57
2021/04/07 02:22:46;;;;;;;0.20;0.20;;;;;;;6.37;41.06;98374.66;5082373;28;20178;-59
2021/04/07 02:25:13;;;;;;;0.20;0.20;;;;;;;7.88;39.19;98385.56;5080811;28;20040;-59
2021/04/07 02:27:40;;;;;;;0.20;0.20;;;;;;;8.98;38.34;98389.16;5080442;28;20143;-59
2021/04/07 02:30:09;;;;;;;0.20;0.20;;;;;;;9.80;37.91;98380.16;5076355;28;20040;-58
2021/04/07 02:32:34;;;;;;;0.20;0.20;;;;;;;10.33;38.07;98377.38;5085110;28;20078;-59
2021/04/07 02:35:00;;;;;;;0.63;0.50;;;;;;;11.17;37.68;98376.75;5087697;28;20052;-58
2021/04/07 02:37:26;;;;;;;0.20;0.20;;;;;;;11.97;36.98;98373.00;5087839;28;20541;-58
2021/04/07 02:39:52;;;;;;;0.20;0.20;;;;;;;12.78;36.79;98380.56;5092062;28;20044;-57
2021/04/07 02:42:22;;;;;;;0.20;0.20;;;;;;;13.23;36.59;98382.06;5089841;28;20182;-59
2021/04/07 02:44:48;;;;;;;0.10;0.10;;;;;;;13.84;36.42;98372.63;5089668;28;20052;-59
2021/04/07 02:47:14;;;;;;;0.15;0.15;;;;;;;13.75;37.07;98386.09;5089583;28;20044;-58
2021/04/07 02:49:40;;;;;;;0.75;0.30;;;;;;;13.39;38.20;98385.00;5087771;28;20488;-60
2021/04/07 02:52:06;;;;;;;0.20;0.20;;;;;;;13.43;38.78;98375.94;5089472;28;20036;-58
2021/04/07 02:54:33;;;;;;;0.20;0.20;;;;;;;13.60;38.55;98383.22;5089486;28;20160;-57
2021/04/07 02:56:59;;;;;;;0.30;0.30;;;;;;;13.84;38.77;98383.66;5091055;28;20533;-57
2021/04/07 02:59:25;;;;;;;0.10;0.10;;;;;;;14.41;38.07;98381.16;5090319;28;20090;-59
2021/04/07 03:01:51;;;;;;;0.20;0.20;;;;;;;13.84;39.18;98384.47;5089802;28;20079;-59
2021/04/07 03:04:17;;;;;;;0.40;0.40;;;;;;;13.59;39.74;98387.06;5089482;28;20127;-59
2021/04/07 03:06:43;;;;;;;0.20;0.20;;;;;;;14.00;39.61;98381.81;5071428;28;20142;-58
2021/04/07 03:09:09;;;;;;;0.20;0.20;;;;;;;13.46;40.37;98380.91;5091622;28;20422;-59
2021/04/07 03:11:35;;;;;;;0.20;0.20;;;;;;;12.60;42.00;98387.25;5086341;28;20150;-47
2021/04/07 03:14:05;;;;;;;0.30;0.30;;;;;;;12.87;41.27;98381.75;5091324;28;20055;-52
2021/04/07 03:16:31;;;;;;;0.30;0.30;;;;;;;13.20;40.75;98371.56;5087034;28;20048;-58
2021/04/07 03:18:57;;;;;;;0.10;0.10;;;;;;;13.76;39.83;98373.13;5090778;28;20055;-50
2021/04/07 03:21:22;;;;;;;0.10;0.10;;;;;;;14.10;39.51;98370.00;5091169;28;20105;-57
2021/04/07 03:23:48;;;;;;;0.10;0.10;;;;;;;13.85;40.03;98371.50;5089087;28;20052;-56
2021/04/07 03:26:14;;;;;;;0.52;0.52;;;;;;;12.91;41.48;98363.63;5091103;28;20079;-48
2021/04/07 03:28:40;;;;;;;0.10;0.10;;;;;;;13.51;40.66;98377.38;5089867;28;20477;-49
2021/04/07 03:31:06;;;;;;;0.20;0.20;;;;;;;14.11;39.64;98374.41;5091530;28;20052;-50
2021/04/07 03:33:34;;;;;;;0.20;0.20;;;;;;;13.46;40.92;98372.66;5071232;28;20112;-51
2021/04/07 03:36:03;;;;;;;0.10;0.10;;;;;;;11.73;43.47;98365.78;5072680;28;20390;-51
2021/04/07 03:38:29;;;;;;;0.17;0.17;;;;;;;10.24;46.14;98368.69;5095153;28;20102;-51
2021/04/07 03:40:55;;;;;;;0.13;0.13;;;;;;;9.93;46.08;98367.25;5095051;28;20117;-58
2021/04/07 03:43:22;;;;;;;0.20;0.20;;;;;;;9.49;46.31;98375.88;5076997;28;20509;-52
2021/04/07 03:45:53;;;;;;;0.20;0.20;;;;;;;10.40;44.14;98363.56;5092846;28;20094;-58
2021/04/07 03:48:21;;;;;;;0.10;0.10;;;;;;;11.58;42.00;98369.13;5092857;28;20063;-58
2021/04/07 03:50:48;;;;;;;0.10;0.10;;;;;;;12.27;40.62;98358.81;5090599;28;20043;-59
2021/04/07 03:53:15;;;;;;;0.40;0.40;;;;;;;13.26;39.13;98356.72;5092569;28;20063;-59
2021/04/07 03:55:42;;;;;;;0.10;0.10;;;;;;;13.93;38.49;98348.94;5092613;28;20080;-58
2021/04/07 03:58:08;;;;;;;0.10;0.10;;;;;;;13.84;38.89;98358.84;5092476;28;20055;-58
2021/04/07 04:00:34;;;;;;;0.10;0.10;;;;;;;13.43;39.60;98359.38;5094665;28;20044;-59
2021/04/07 04:03:00;;;;;;;0.10;0.10;;;;;;;13.15;40.22;98355.00;5090118;28;20098;-59
2021/04/07 04:05:26;;;;;;;0.30;0.30;;;;;;;13.06;40.59;98351.03;5094649;28;20102;-59
2021/04/07 04:07:51;;;;;;;0.20;0.20;;;;;;;12.30;41.68;98360.22;5094453;28;20521;-59
2021/04/07 04:10:18;;;;;;;0.10;0.10;;;;;;;11.16;43.12;98346.75;5092193;28;20538;-58
2021/04/07 04:12:44;;;;;;;0.10;0.10;;;;;;;10.26;44.65;98352.00;5092345;28;20062;-59
2021/04/07 04:15:12;;;;;;;0.15;0.15;;;;;;;9.62;45.22;98350.13;5074024;28;20048;-58
2021/04/07 04:17:38;;;;;;;0.10;0.10;;;;;;;9.10;45.71;98348.09;5072444;28;20049;-59
2021/04/07 04:20:05;;;;;;;0.20;0.20;;;;;;;8.82;45.70;98355.09;5092238;28;20491;-60
2021/04/07 04:22:31;;;;;;;0.30;0.30;;;;;;;8.82;45.17;98352.34;5094227;28;20076;-59
2021/04/07 04:24:57;;;;;;;0.10;0.10;;;;;;;8.55;44.83;98351.91;5074749;28;20499;-59
2021/04/07 04:27:23;;;;;;;0.20;0.20;;;;;;;8.37;44.96;98355.50;5091479;28;20206;-58
2021/04/07 04:29:49;;;;;;;0.20;0.20;;;;;;;8.35;44.57;98360.38;5091789;28;20425;-59
2021/04/07 04:32:15;;;;;;;0.10;0.10;;;;;;;8.32;44.27;98366.28;5089978;28;20052;-59
2021/04/07 04:34:40;;;;;;;0.22;0.22;;;;;;;8.47;43.81;98364.03;5094146;28;20052;-59
2021/04/07 04:37:06;;;;;;;0.10;0.10;;;;;;;8.68;43.11;98357.19;5092275;28;20052;-59
2021/04/07 04:39:32;;;;;;;0.20;0.20;;;;;;;8.83;42.92;98355.91;5093978;28;20118;-59
2021/04/07 04:41:58;;;;;;;0.17;0.17;;;;;;;8.71;42.84;98361.34;5074414;28;20058;-59
2021/04/07 04:44:24;;;;;;;0.10;0.10;;;;;;;8.65;42.62;98359.56;5090696;28;20056;-59
2021/04/07 04:46:49;;;;;;;0.20;0.20;;;;;;;8.53;42.88;98359.53;5092594;28;20048;-60
2021/04/07 04:49:15;;;;;;;0.10;0.10;;;;;;;8.36;43.14;98351.09;5090989;28;20533;-60
2021/04/07 04:51:41;;;;;;;0.20;0.20;;;;;;;8.42;42.97;98356.47;5091444;28;20056;-58
2021/04/07 04:54:07;;;;;;;0.10;0.10;;;;;;;8.50;42.70;98358.06;5091654;28;20056;-59
2021/04/07 04:56:33;;;;;;;0.10;0.10;;;;;;;8.40;42.95;98364.06;5071219;28;20479;-59
2021/04/07 04:58:58;;;;;;;0.28;0.28;;;;;;;8.34;42.84;98358.69;5093626;28;20051;-58
2021/04/07 05:01:24;;;;;;;0.20;0.20;;;;;;;8.21;43.21;98356.97;5088546;28;20425;-59
2021/04/07 05:03:50;;;;;;;0.20;0.20;;;;;;;8.18;43.20;98371.13;5074035;28;20048;-59
2021/04/07 05:06:16;;;;;;;0.20;0.20;;;;;;;8.18;43.30;98357.44;5093616;28;20040;-59
2021/04/07 05:08:45;;;;;;;0.20;0.20;;;;;;;8.19;43.17;98356.38;5068952;28;20074;-59
2021/04/07 05:11:11;;;;;;;0.20;0.20;;;;;;;8.20;43.04;98355.28;5093054;28;20048;-58
2021/04/07 05:13:37;;;;;;;0.20;0.20;;;;;;;8.10;43.27;98360.47;5091146;28;20067;-57
2021/04/07 05:16:03;;;;;;;0.10;0.10;;;;;;;7.99;43.41;98359.34;5091053;28;20048;-59
2021/04/07 05:18:28;;;;;;;0.10;0.10;;;;;;;7.97;43.28;98364.22;5093024;28;20055;-59
2021/04/07 05:20:54;;;;;;;0.10;0.10;;;;;;;7.93;43.29;98363.00;5070608;28;20055;-58
2021/04/07 05:23:20;;;;;;;0.10;0.10;;;;;;;8.10;43.02;98363.22;5093170;28;20083;-58
2021/04/07 05:25:46;;;;;;;0.17;0.17;;;;;;;8.19;42.78;98362.69;5088824;28;20517;-59
2021/04/07 05:28:12;;;;;;;0.20;0.20;;;;;;;8.36;42.62;98368.34;5092677;28;20063;-58
2021/04/07 05:33:23;;;;;;;0.20;0.20;;;;;;;7.81;43.70;98361.03;5090746;28;20429;-58
2021/04/07 05:35:55;;;;;;;0.20;0.20;;;;;;;8.01;43.37;98358.06;5074518;28;20052;-59
2021/04/07 05:38:21;;;;;;;0.20;0.20;;;;;;;8.40;42.77;98361.34;5092876;28;20044;-57
2021/04/07 05:40:49;;;;;;;0.20;0.20;;;;;;;8.45;42.64;98357.09;5092509;28;20048;-59
2021/04/07 05:43:15;;;;;;;0.20;0.20;;;;;;;8.35;42.81;98354.91;5088287;28;20181;-59
2021/04/07 05:45:41;;;;;;;0.20;0.20;;;;;;;8.16;43.17;98368.59;5069961;28;20514;-58
2021/04/07 05:48:07;;;;;;;0.20;0.20;;;;;;;7.87;43.62;98353.81;5090753;28;20448;-59
2021/04/07 05:50:38;;;;;;;0.20;0.20;;;;;;;7.70;44.03;98353.63;5090394;28;20060;-58
2021/04/07 05:53:04;;;;;;;0.30;0.30;;;;;;;7.70;44.04;98351.72;5092397;28;20048;-58
2021/04/07 05:55:30;;;;;;;0.20;0.20;;;;;;;7.66;44.13;98363.31;5088121;28;20055;-59
2021/04/07 05:58:06;;;;;;;0.20;0.20;;;;;;;7.59;44.30;98359.81;5090296;28;20083;-59
2021/04/07 06:00:34;;;;;;;0.20;0.20;;;;;;;7.62;44.18;98362.94;5089629;28;20102;-58
2021/04/07 06:03:01;;;;;;;0.10;0.10;;;;;;;7.70;44.02;98354.44;5092304;28;20394;-58
2021/04/07 06:05:27;;;;;;;0.10;0.10;;;;;;;7.90;43.61;98358.84;5092092;28;20056;-58
2021/04/07 06:08:00;;;;;;;0.20;0.20;;;;;;;8.07;43.40;98353.59;5090521;28;20055;-58
2021/04/07 06:10:27;;;;;;;0.20;0.20;;;;;;;7.86;43.90;98365.81;5092302;28;20083;-58
2021/04/07 06:12:57;;;;;;;0.20;0.20;;;;;;;7.55;44.38;98348.50;5074409;28;20453;-59
2021/04/07 06:15:24;;;;;;;0.20;0.20;;;;;;;7.45;44.66;98349.03;5092154;28;20058;-57
2021/04/07 06:17:57;;;;;;;0.20;0.20;;;;;;;7.37;44.61;98371.16;5092636;28;20102;-57
2021/04/07 06:20:29;;;;;;;0.20;0.20;;;;;;;7.46;44.54;98366.25;5090106;28;20056;-58
2021/04/07 06:22:55;;;;;;;0.20;0.20;;;;;;;7.72;43.98;98371.44;5092273;28;20513;-57
2021/04/07 06:25:21;;;;;;;0.20;0.20;;;;;;;7.97;43.63;98376.00;5089646;28;20170;-57
2021/04/07 06:27:55;;;;;;;0.20;0.20;;;;;;;8.09;43.40;98372.50;5090354;28;20063;-58
2021/04/07 06:30:40;;;;;;;0.10;0.10;;;;;;;8.05;43.45;98375.69;5092103;28;20056;-58
2021/04/07 06:33:16;;;;;;;0.20;0.20;;;;;;;8.05;43.68;98370.22;5089905;28;20080;-58
2021/04/07 06:35:45;;;;;;;0.20;0.20;;;;;;;8.03;43.64;98368.78;5090018;28;20048;-57
2021/04/07 06:38:11;;;;;;;0.20;0.20;;;;;;;8.05;43.69;98370.22;5092378;28;20048;-59
2021/04/07 06:40:37;;;;;;;0.20;0.20;;;;;;;8.01;43.72;98373.63;5087711;28;20048;-58
2021/04/07 06:43:04;;;;;;;0.20;0.20;;;;;;;7.87;44.16;98386.63;5091904;28;20125;-59
2021/04/07 06:45:33;;;;;;;0.43;0.43;;;;;;;7.50;44.76;98384.69;5071781;28;20056;-58
2021/04/07 06:47:59;;;;;;;0.20;0.20;;;;;;;7.08;45.68;98383.63;5071868;28;20059;-59
2021/04/07 06:50:26;;;;;;;0.20;0.20;;;;;;;6.76;46.46;98389.13;5090052;28;20052;-58
2021/04/07 06:52:56;;;;;;;0.10;0.10;;;;;;;6.51;46.82;98384.44;5073218;28;20056;-59
2021/04/07 06:55:21;;;;;;;0.10;0.10;;;;;;;6.42;46.77;98391.19;5089374;28;20664;-59
2021/04/07 06:57:47;;;;;;;0.20;0.20;;;;;;;6.39;46.76;98378.84;5091627;28;20048;-59
2021/04/07 07:00:14;;;;;;;0.20;0.20;;;;;;;6.37;46.68;98382.84;5089880;28;20121;-59
2021/04/07 07:02:40;;;;;;;0.20;0.20;;;;;;;6.37;46.47;98382.84;5088754;28;20098;-58
2021/04/07 07:05:07;;;;;;;0.20;0.20;;;;;;;6.45;46.32;98388.06;5091053;28;20052;-59
2021/04/07 07:07:33;;;;;;;0.20;0.20;;;;;;;6.55;46.25;98395.75;5089743;28;20059;-60
2021/04/07 07:09:58;;;;;;;0.20;0.20;;;;;;;6.63;46.10;98392.78;5089836;28;20458;-58
2021/04/07 07:12:25;;;;;;;0.20;0.20;;;;;;;6.73;45.83;98393.13;5093406;28;20461;-58
2021/04/07 07:14:51;;;;;;;0.20;0.20;;;;;;;6.80;45.78;98385.72;5075176;28;20051;-59
2021/04/07 07:17:31;;;;;;;0.20;0.20;;;;;;;7.13;45.17;98386.53;5093572;28;20055;-59
2021/04/07 07:19:59;;;;;;;0.20;0.20;;;;;;;7.42;44.75;98384.16;5095902;28;20044;-58
2021/04/07 07:22:27;;;;;;;0.20;0.20;;;;;;;7.66;44.43;98385.19;5093661;28;20056;-59
2021/04/07 07:24:55;;;;;;;0.20;0.20;;;;;;;7.84;44.16;98389.81;5093534;28;20059;-59
2021/04/07 07:27:35;;;;;;;0.10;0.10;;;;;;;7.92;44.32;98388.69;5095282;28;20063;-59
2021/04/07 07:30:01;;;;;;;0.20;0.20;;;;;;;7.85;44.50;98384.13;5093382;28;20052;-58
2021/04/07 07:32:38;;;;;;;0.25;0.25;;;;;;;7.92;44.65;98385.94;5095485;28;20076;-59
2021/04/07 07:35:11;;;;;;;0.20;0.20;;;;;;;7.99;44.43;98386.69;5093106;28;20078;-59
2021/04/07 07:37:39;;;;;;;0.20;0.20;;;;;;;8.08;44.42;98388.06;5074894;28;20048;-59
2021/04/07 07:40:08;;;;;;;0.20;0.20;;;;;;;8.10;44.48;98396.03;5090854;28;20533;-58
2021/04/07 07:42:34;;;;;;;0.17;0.17;;;;;;;8.15;44.45;98385.25;5095005;28;20046;-59
2021/04/07 07:45:01;;;;;;;0.20;0.20;;;;;;;8.37;44.23;98382.84;5094650;28;20070;-59
2021/04/07 07:47:39;;;;;;;0.20;0.20;;;;;;;8.58;43.96;98374.19;5093578;28;20048;-59
2021/04/07 07:50:08;;;;;;;0.10;0.10;;;;;;;8.80;43.62;98376.38;5094848;28;20048;-58
2021/04/07 07:52:37;;;;;;;0.20;0.20;;;;;;;9.08;43.28;98375.75;5076697;28;20528;-59
2021/04/07 07:55:18;;;;;;;0.40;0.40;;;;;;;9.20;43.31;98383.97;5074606;28;20082;-58
2021/04/07 07:57:58;;;;;;;0.20;0.20;;;;;;;9.09;43.57;98373.81;5092899;28;20073;-60
2021/04/07 08:00:27;;;;;;;0.20;0.20;;;;;;;9.16;43.71;98370.94;5093505;28;20063;-58
2021/04/07 08:02:54;;;;;;;0.20;0.20;;;;;;;9.18;43.67;98380.59;5114993;28;20416;-58
2021/04/07 08:05:21;;;;;;;0.20;0.20;;;;;;;9.00;44.06;98384.28;5115008;28;20408;-58
2021/04/07 08:07:47;;;;;;;2.40;1.85;;;;;;;8.74;44.60;98385.53;5115337;28;20056;-59
2021/04/07 08:10:14;;;;;;;0.10;0.10;;;;;;;8.71;44.78;98384.06;5114607;28;20051;-57
2021/04/07 08:12:41;;;;;;;0.20;0.20;;;;;;;8.97;44.40;98386.66;5093431;28;20039;-58
2021/04/07 08:15:11;;;;;;;0.10;0.10;;;;;;;9.06;44.18;98379.78;5113736;28;20113;-59
2021/04/07 08:17:37;;;;;;;0.20;0.20;;;;;;;9.07;44.20;98382.28;5090411;28;20394;-58
2021/04/07 08:20:07;;;;;;;0.20;0.20;;;;;;;9.14;44.13;98389.53;5078340;28;20052;-57
2021/04/07 08:22:38;;;;;;;0.20;0.20;;;;;;;9.09;44.32;98393.81;5080708;28;20131;-58
2021/04/07 08:25:06;;;;;;;0.20;0.20;;;;;;;9.22;44.18;98392.78;5054178;28;20040;-59
2021/04/07 08:27:35;;;;;;;0.20;0.20;;;;;;;9.36;43.93;98387.06;5058599;28;20151;-58
2021/04/07 08:30:04;;;;;;;0.10;0.10;;;;;;;9.08;44.40;98397.66;5093316;28;20089;-58
2021/04/07 08:32:31;;;;;;;0.17;0.17;;;;;;;8.84;45.03;98383.06;5099598;28;20129;-58
2021/04/07 08:34:57;;;;;;;0.43;0.43;;;;;;;8.83;45.00;98380.53;5078480;28;20059;-59
2021/04/07 08:37:31;;;;;;;0.10;0.10;;;;;;;8.84;44.92;98390.44;5046238;28;20045;-58
2021/04/07 08:40:18;;;;;;;0.20;0.20;;;;;;;8.72;45.25;98388.50;5077098;28;20056;-58
2021/04/07 08:42:44;;;;;;;0.68;0.68;;;;;;;8.69;45.23;98399.09;5070255;28;20072;-58
2021/04/07 08:45:13;;;;;;;0.10;0.10;;;;;;;8.79;45.25;98384.81;5077083;28;20143;-59
2021/04/07 08:47:52;;;;;;;0.20;0.20;;;;;;;8.92;44.85;98385.47;5082096;28;20052;-59
2021/04/07 08:50:18;;;;;;;0.20;0.20;;;;;;;9.01;44.78;98379.63;5080537;28;20043;-59
2021/04/07 08:52:49;;;;;;;0.20;0.20;;;;;;;9.15;44.41;98378.34;5090819;28;20105;-58
2021/04/07 08:55:16;;;;;;;0.20;0.20;;;;;;;9.26;44.27;98379.41;5089541;28;20138;-59
2021/04/07 08:57:42;;;;;;;0.35;0.35;;;;;;;9.20;44.23;98377.63;5057747;28;20051;-59
2021/04/07 09:00:13;;;;;;;0.10;0.10;;;;;;;9.21;44.43;98373.84;5076935;28;20048;-58
2021/04/07 09:02:56;;;;;;;0.10;0.10;;;;;;;9.14;44.68;98375.84;5073060;28;20509;-59
2021/04/07 09:05:34;;;;;;;0.10;0.10;;;;;;;9.35;44.41;98368.94;5077885;28;20056;-59
2021/04/07 09:08:01;;;;;;;0.28;0.28;;;;;;;9.67;43.94;98371.31;5085706;28;20070;-58
2021/04/07 09:10:43;;;;;;;0.20;0.20;;;;;;;9.94;43.49;98364.25;5087248;28;20460;-59
2021/04/07 09:13:14;;;;;;;0.10;0.10;;;;;;;9.86;43.75;98361.06;5082218;28;20040;-58
2021/04/07 09:16:05;;;;;;;0.10;0.10;;;;;;;9.65;44.19;98371.56;5081882;28;20159;-58
2021/04/07 09:18:49;;;;;;;0.10;0.10;;;;;;;9.53;44.43;98374.31;5076340;28;20398;-59
2021/04/07 09:21:22;;;;;;;0.20;0.20;;;;;;;9.61;44.38;98384.06;5081812;28;20052;-58
2021/04/07 09:24:01;;;;;;;0.10;0.10;;;;;;;9.58;44.47;98377.16;5082480;28;20044;-57
2021/04/07 09:26:31;;;;;;;0.20;0.20;;;;;;;9.68;44.12;98390.28;5083226;28;20044;-59
2021/04/07 09:28:57;;;;;;;0.17;0.17;;;;;;;9.63;44.36;98381.94;5082486;28;20079;-58
2021/04/07 09:31:33;;;;;;;0.10;0.10;;;;;;;9.66;44.53;98373.25;5081160;28;20130;-59
2021/04/07 09:33:59;;;;;;;0.20;0.20;;;;;;;9.63;44.47;98382.78;5078362;28;20064;-58
2021/04/07 09:36:35;;;;;;;0.20;0.20;;;;;;;9.54;44.79;98372.41;5079870;28;20048;-58
2021/04/07 09:39:10;;;;;;;0.10;0.10;;;;;;;9.52;44.91;98377.31;5059389;28;20421;-58
2021/04/07 09:41:40;;;;;;;0.10;0.10;;;;;;;9.48;44.91;98374.19;5075424;28;20048;-59
2021/04/07 09:44:07;;;;;;;0.20;0.20;;;;;;;9.50;45.22;98368.50;5077865;28;20071;-60
2021/04/07 09:46:34;;;;;;;0.20;0.20;;;;;;;9.56;44.80;98360.13;5061871;28;20055;-60
2021/04/07 09:49:05;;;;;;;0.10;0.10;;;;;;;9.68;44.57;98373.81;5075842;28;20048;-59
2021/04/07 09:51:42;;;;;;;0.22;0.22;;;;;;;9.67;44.68;98347.47;5081952;28;20513;-60
2021/04/07 09:54:13;;;;;;;0.10;0.10;;;;;;;9.39;45.16;98368.25;5076538;28;20048;-59
2021/04/07 09:56:59;;;;;;;0.10;0.10;;;;;;;9.16;45.41;98371.81;5082128;28;20497;-57
2021/04/07 09:59:42;;;;;;;0.30;0.30;;;;;;;8.96;45.85;98369.38;5079884;28;20466;-59
2021/04/07 10:02:10;;;;;;;0.10;0.10;;;;;;;8.86;46.04;98371.88;5078461;28;20078;-60
2021/04/07 10:04:42;;;;;;;0.10;0.10;;;;;;;8.77;46.12;98379.56;5082551;28;20490;-58
2021/04/07 10:07:14;;;;;;;0.20;0.20;;;;;;;8.67;46.23;98363.75;5082080;28;20041;-59
2021/04/07 10:09:43;;;;;;;0.35;0.35;;;;;;;8.57;46.43;98372.50;5079077;28;20045;-59
2021/04/07 10:12:09;;;;;;;0.20;0.20;;;;;;;8.42;46.76;98378.38;5059798;28;20051;-58
2021/04/07 10:14:35;;;;;;;0.10;0.10;;;;;;;8.37;46.64;98370.00;5055993;28;20090;-58
2021/04/07 10:17:15;;;;;;;0.10;0.10;;;;;;;8.48;46.58;98368.44;5076480;28;20091;-58
2021/04/07 10:19:43;;;;;;;0.22;0.22;;;;;;;8.58;46.20;98374.19;5089714;28;20048;-58
2021/04/07 10:22:15;;;;;;;0.20;0.20;;;;;;;8.63;46.16;98378.94;5080217;28;20405;-58
2021/04/07 10:24:43;;;;;;;0.20;0.20;;;;;;;8.71;45.89;98370.38;5079577;28;20140;-57
2021/04/07 10:27:10;;;;;;;0.20;0.20;;;;;;;8.70;45.86;98378.84;5083269;28;20040;-58
2021/04/07 10:29:37;;;;;;;0.20;0.20;;;;;;;8.69;45.98;98382.66;5046461;28;20417;-58
2021/04/07 10:32:04;;;;;;;0.20;0.20;;;;;;;8.65;46.00;98389.66;5076898;28;20067;-58
2021/04/07 10:34:34;;;;;;;0.20;0.20;;;;;;;8.52;46.35;98369.63;5080608;28;20124;-58
2021/04/07 10:37:04;;;;;;;0.10;0.10;;;;;;;8.41;46.35;98376.69;5085753;28;20075;-58
2021/04/07 10:39:38;;;;;;;0.20;0.20;;;;;;;8.37;46.45;98377.38;5081963;28;20044;-59
2021/04/07 10:42:04;;;;;;;0.20;0.20;;;;;;;8.35;46.35;98374.88;5060914;28;20075;-59
2021/04/07 10:44:34;;;;;;;0.20;0.20;;;;;;;8.31;46.48;98376.41;5078213;28;20391;-58
2021/04/07 10:47:00;;;;;;;0.10;0.10;;;;;;;8.30;46.46;98384.84;5080117;28;20648;-59
2021/04/07 10:49:26;;;;;;;0.20;0.20;;;;;;;8.29;46.60;98392.22;5062710;28;20068;-58
2021/04/07 10:52:00;;;;;;;0.10;0.10;;;;;;;8.28;46.58;98387.81;5084433;28;20052;-58
2021/04/07 10:54:27;;;;;;;;;;;;;;;8.24;46.84;98386.59;5071806;28;20057;-58
2021/04/07 10:57:07;;;;;;;0.20;0.20;;;;;;;8.19;46.73;98400.97;5082122;28;20026;-59
2021/04/07 10:59:34;;;;;;;0.20;0.20;;;;;;;8.14;46.87;98391.78;5076098;28;20049;-58
2021/04/07 11:02:14;;;;;;;0.10;0.10;;;;;;;8.13;46.92;98385.47;5087802;28;20045;-57
2021/04/07 11:04:39;;;;;;;0.20;0.20;;;;;;;8.13;46.77;98379.19;5084016;28;20474;-59
2021/04/07 11:07:07;;;;;;;0.20;0.20;;;;;;;8.15;46.94;98382.50;5085307;28;20067;-61
2021/04/07 11:09:38;;;;;;;0.20;0.20;;;;;;;8.17;46.89;98388.56;5084048;28;20052;-59
2021/04/07 11:12:05;;;;;;;0.15;0.15;;;;;;;8.26;46.65;98381.75;5084024;28;20048;-59
2021/04/07 11:14:33;;;;;;;0.10;0.10;;;;;;;8.39;46.41;98378.84;5088140;28;20087;-58
2021/04/07 11:17:03;;;;;;;0.20;0.20;;;;;;;8.51;46.21;98373.44;5087637;28;20048;-59
2021/04/07 11:19:34;;;;;;;0.10;0.10;;;;;;;8.60;46.17;98384.91;5083347;28;20060;-58
2021/04/07 11:22:00;;;;;;;0.13;0.13;;;;;;;8.62;46.21;98395.59;5083737;28;20053;-60
2021/04/07 11:24:25;;;;;;;0.10;0.10;;;;;;;8.58;46.26;98382.41;5072605;28;20456;-59
2021/04/07 11:26:55;;;;;;;0.20;0.20;;;;;;;8.65;46.26;98376.81;5082420;28;20043;-58
2021/04/07 11:29:22;;;;;;;0.20;0.20;;;;;;;8.74;46.18;98380.88;5075933;28;20124;-57
2021/04/07 11:31:52;;;;;;;0.20;0.20;;;;;;;8.87;46.15;98384.50;5080297;28;20044;-59
2021/04/07 11:34:24;;;;;;;0.10;0.10;;;;;;;8.88;45.98;98384.25;5062147;28;20048;-58
2021/04/07 11:39:38;;;;;;;0.20;0.20;;;;;;;9.13;45.59;98391.47;5079822;28;20058;-58
2021/04/07 11:44:31;;;;;;;0.10;0.10;;;;;;;8.95;46.17;98381.41;5089597;28;20054;-59
2021/04/07 11:46:59;;;;;;;0.10;0.10;;;;;;;8.81;46.26;98380.78;5085614;28;20097;-59
2021/04/07 11:49:25;;;;;;;0.13;0.13;;;;;;;8.73;46.64;98384.69;5084522;28;20040;-58
2021/04/07 11:51:52;;;;;;;0.35;0.30;;;;;;;8.65;46.88;98375.97;5077648;28;20669;-57
2021/04/07 11:54:17;;;;;;;0.20;0.20;;;;;;;8.63;46.96;98378.09;5078591;28;20140;-58